CAL188 RCTP-RKPK
Flight info
| Callsign | CAL188 |
|---|---|
| Flight time | 1h 42m |
| Altitude | 37000 |
| Route | PIANO1A PIANO L3 SALMI Y743 BOLUT Y741 ATOTI Y722 SOSDO Y571 ANROD KEVOX3 |
| Aircraft | A21N/M-SDE2E3FGHIJ1RWXY/LB1 |
Departure
| Time | 2026-05-04 11:28 |
|---|---|
| Airport | Taiwan Taoyuan International Airport (RCTP) |
Arrival
| Time | 2026-05-04 13:11 |
|---|---|
| Airport | Gimhae International Airport (RKPK) |
| Time | Latitude | Longitude | Altitude | Speed | Heading |
|---|---|---|---|---|---|
| 2026-05-04 10:39 | 25.07719 | 121.22822 | 106 ft | 0 kts | 139° |
| 2026-05-04 11:10 | 25.07725 | 121.22816 | 106 ft | 4 kts | 139° |
| 2026-05-04 11:12 | 25.07835 | 121.22779 | 106 ft | 0 kts | 229° |
| 2026-05-04 11:19 | 25.07779 | 121.22708 | 105 ft | 9 kts | 229° |
| 2026-05-04 11:19 | 25.07732 | 121.22649 | 106 ft | 11 kts | 229° |
| 2026-05-04 11:19 | 25.07677 | 121.22579 | 106 ft | 13 kts | 229° |
| 2026-05-04 11:19 | 25.07654 | 121.22550 | 105 ft | 5 kts | 229° |
| 2026-05-04 11:20 | 25.07625 | 121.22513 | 106 ft | 7 kts | 229° |
| 2026-05-04 11:20 | 25.07586 | 121.22463 | 106 ft | 10 kts | 229° |
| 2026-05-04 11:20 | 25.07536 | 121.22399 | 105 ft | 12 kts | 230° |
| 2026-05-04 11:20 | 25.07477 | 121.22321 | 106 ft | 14 kts | 230° |
| 2026-05-04 11:22 | 25.07195 | 121.22226 | 106 ft | 10 kts | 139° |
| 2026-05-04 11:22 | 25.07138 | 121.22282 | 105 ft | 12 kts | 139° |
| 2026-05-04 11:23 | 25.07068 | 121.22348 | 106 ft | 14 kts | 139° |
| 2026-05-04 11:23 | 25.06988 | 121.22424 | 105 ft | 16 kts | 139° |
| 2026-05-04 11:24 | 25.06654 | 121.22725 | 104 ft | 13 kts | 172° |
| 2026-05-04 11:25 | 25.06577 | 121.22666 | 105 ft | 15 kts | 228° |
| 2026-05-04 11:25 | 25.06507 | 121.22573 | 103 ft | 17 kts | 231° |
| 2026-05-04 11:25 | 25.06427 | 121.22468 | 105 ft | 19 kts | 228° |
| 2026-05-04 11:26 | 25.06256 | 121.22254 | 105 ft | 4 kts | 226° |
| 2026-05-04 11:27 | 25.06267 | 121.22588 | 101 ft | 73 kts | 50° |
| 2026-05-04 11:28 | 25.06777 | 121.23235 | 101 ft | 145 kts | 51° |
| 2026-05-04 11:28 | 25.07546 | 121.24197 | 376 ft | 176 kts | 51° |
| 2026-05-04 11:28 | 25.08313 | 121.25154 | 1298 ft | 159 kts | 56° |
| 2026-05-04 11:28 | 25.09022 | 121.26137 | 1940 ft | 172 kts | 54° |
| 2026-05-04 11:29 | 25.09839 | 121.27223 | 2540 ft | 190 kts | 54° |
| 2026-05-04 11:29 | 25.10712 | 121.28370 | 3005 ft | 216 kts | 54° |
| 2026-05-04 11:29 | 25.11706 | 121.29668 | 3575 ft | 237 kts | 52° |
| 2026-05-04 11:29 | 25.12963 | 121.30796 | 4350 ft | 254 kts | 34° |
| 2026-05-04 11:31 | 25.25975 | 121.28507 | 10424 ft | 309 kts | 354° |
| 2026-05-04 11:33 | 25.42244 | 121.31884 | 14880 ft | 397 kts | 46° |
| 2026-05-04 11:33 | 25.43965 | 121.34298 | 15547 ft | 403 kts | 49° |
| 2026-05-04 11:33 | 25.45722 | 121.36786 | 16212 ft | 408 kts | 48° |
| 2026-05-04 11:34 | 25.47508 | 121.39196 | 16857 ft | 412 kts | 46° |
| 2026-05-04 11:34 | 25.49395 | 121.41655 | 17520 ft | 417 kts | 46° |
| 2026-05-04 11:34 | 25.51279 | 121.44070 | 18152 ft | 421 kts | 45° |
| 2026-05-04 11:34 | 25.53216 | 121.46538 | 18714 ft | 426 kts | 45° |
| 2026-05-04 11:35 | 25.55195 | 121.49061 | 19227 ft | 433 kts | 45° |
| 2026-05-04 11:35 | 25.57156 | 121.51569 | 19740 ft | 438 kts | 45° |
| 2026-05-04 11:35 | 25.59179 | 121.54164 | 20265 ft | 442 kts | 45° |
| 2026-05-04 11:35 | 25.60965 | 121.56457 | 20742 ft | 445 kts | 45° |
| 2026-05-04 11:36 | 25.62940 | 121.58991 | 21259 ft | 449 kts | 45° |
| 2026-05-04 11:36 | 25.64980 | 121.61605 | 21772 ft | 453 kts | 45° |
| 2026-05-04 11:36 | 25.67057 | 121.64269 | 22278 ft | 459 kts | 45° |
| 2026-05-04 11:36 | 25.69153 | 121.66963 | 22808 ft | 462 kts | 45° |
| 2026-05-04 11:37 | 25.71192 | 121.69577 | 23321 ft | 461 kts | 48° |
| 2026-05-04 11:37 | 25.73279 | 121.72272 | 23846 ft | 464 kts | 45° |
| 2026-05-04 11:37 | 25.75381 | 121.74977 | 24107 ft | 472 kts | 45° |
| 2026-05-04 11:37 | 25.77564 | 121.77783 | 24468 ft | 477 kts | 45° |
| 2026-05-04 11:38 | 25.79754 | 121.80579 | 24844 ft | 479 kts | 43° |
| 2026-05-04 11:38 | 25.82196 | 121.83054 | 25252 ft | 474 kts | 31° |
| 2026-05-04 11:38 | 25.84821 | 121.85192 | 25643 ft | 475 kts | 30° |
| 2026-05-04 11:38 | 25.87544 | 121.87378 | 26004 ft | 479 kts | 30° |
| 2026-05-04 11:39 | 25.90249 | 121.89546 | 26391 ft | 483 kts | 30° |
| 2026-05-04 11:39 | 25.92972 | 121.91745 | 26780 ft | 486 kts | 30° |
| 2026-05-04 11:40 | 26.09810 | 122.05143 | 28723 ft | 505 kts | 29° |
| 2026-05-04 11:41 | 26.12694 | 122.07401 | 29041 ft | 508 kts | 29° |
| 2026-05-04 11:41 | 26.15584 | 122.09665 | 29380 ft | 510 kts | 30° |
| 2026-05-04 11:41 | 26.18463 | 122.11921 | 29690 ft | 513 kts | 29° |
| 2026-05-04 11:41 | 26.21437 | 122.14251 | 29943 ft | 517 kts | 29° |
| 2026-05-04 11:42 | 26.24380 | 122.16557 | 30231 ft | 520 kts | 29° |
| 2026-05-04 11:42 | 26.27355 | 122.18894 | 30495 ft | 523 kts | 29° |
| 2026-05-04 11:42 | 26.30292 | 122.21204 | 30749 ft | 525 kts | 29° |
| 2026-05-04 11:42 | 26.33276 | 122.23551 | 30989 ft | 527 kts | 29° |
| 2026-05-04 11:43 | 26.36280 | 122.25913 | 31216 ft | 529 kts | 28° |
| 2026-05-04 11:43 | 26.39289 | 122.28280 | 31533 ft | 530 kts | 28° |
| 2026-05-04 11:43 | 26.42312 | 122.30660 | 31755 ft | 532 kts | 28° |
| 2026-05-04 11:43 | 26.45325 | 122.33034 | 32032 ft | 532 kts | 28° |
| 2026-05-04 11:44 | 26.48347 | 122.35430 | 32318 ft | 531 kts | 28° |
| 2026-05-04 11:44 | 26.51395 | 122.37834 | 32693 ft | 529 kts | 28° |
| 2026-05-04 11:44 | 26.54392 | 122.40202 | 32983 ft | 529 kts | 28° |
| 2026-05-04 11:44 | 26.57387 | 122.42575 | 33266 ft | 528 kts | 28° |
| 2026-05-04 11:45 | 26.60350 | 122.44927 | 33578 ft | 528 kts | 28° |
| 2026-05-04 11:45 | 26.63387 | 122.47338 | 33781 ft | 530 kts | 27° |
| 2026-05-04 11:45 | 26.66358 | 122.49686 | 34000 ft | 530 kts | 27° |
| 2026-05-04 11:45 | 26.69408 | 122.52095 | 34243 ft | 530 kts | 27° |
| 2026-05-04 11:46 | 26.72406 | 122.54473 | 34481 ft | 529 kts | 27° |
| 2026-05-04 11:46 | 26.75415 | 122.56866 | 34726 ft | 528 kts | 27° |
| 2026-05-04 11:46 | 26.78404 | 122.59240 | 34961 ft | 527 kts | 27° |
| 2026-05-04 11:46 | 26.81386 | 122.61607 | 35213 ft | 525 kts | 27° |
| 2026-05-04 11:47 | 26.84370 | 122.63965 | 35408 ft | 525 kts | 27° |
| 2026-05-04 11:47 | 26.87343 | 122.66314 | 35608 ft | 525 kts | 27° |
| 2026-05-04 11:47 | 26.90331 | 122.68683 | 35832 ft | 524 kts | 27° |
| 2026-05-04 11:47 | 26.93301 | 122.71049 | 36049 ft | 523 kts | 27° |
| 2026-05-04 11:48 | 26.96208 | 122.73367 | 36253 ft | 522 kts | 27° |
| 2026-05-04 11:48 | 26.99215 | 122.75767 | 36459 ft | 521 kts | 27° |
| 2026-05-04 11:48 | 27.02127 | 122.78089 | 36661 ft | 520 kts | 27° |
| 2026-05-04 11:48 | 27.04117 | 122.79677 | 36783 ft | 519 kts | 27° |
| 2026-05-04 11:49 | 27.08039 | 122.82812 | 37039 ft | 518 kts | 27° |
| 2026-05-04 11:49 | 27.10938 | 122.85132 | 37217 ft | 518 kts | 27° |
| 2026-05-04 11:49 | 27.13870 | 122.87481 | 37251 ft | 518 kts | 27° |
| 2026-05-04 11:50 | 27.18768 | 122.91410 | 37208 ft | 516 kts | 27° |
| 2026-05-04 11:50 | 27.24501 | 122.96351 | 37228 ft | 522 kts | 32° |
| 2026-05-04 11:51 | 27.30043 | 123.01661 | 37201 ft | 525 kts | 33° |
| 2026-05-04 11:51 | 27.35602 | 123.06992 | 37196 ft | 525 kts | 33° |
| 2026-05-04 11:52 | 27.41155 | 123.12321 | 37196 ft | 524 kts | 33° |
| 2026-05-04 11:52 | 27.46707 | 123.17649 | 37200 ft | 526 kts | 33° |
| 2026-05-04 11:53 | 27.52273 | 123.22999 | 37197 ft | 525 kts | 33° |
| 2026-05-04 11:53 | 27.57833 | 123.28354 | 37179 ft | 526 kts | 33° |
| 2026-05-04 11:55 | 27.80149 | 123.49923 | 37194 ft | 530 kts | 33° |
| 2026-05-04 11:56 | 27.85746 | 123.55348 | 37211 ft | 531 kts | 32° |
| 2026-05-04 11:56 | 27.91366 | 123.60799 | 37198 ft | 532 kts | 32° |
| 2026-05-04 11:57 | 27.96953 | 123.66231 | 37198 ft | 532 kts | 33° |
| 2026-05-04 11:57 | 28.02563 | 123.71698 | 37190 ft | 531 kts | 33° |
| 2026-05-04 11:58 | 28.08172 | 123.77166 | 37208 ft | 533 kts | 32° |
| 2026-05-04 11:58 | 28.13753 | 123.82623 | 37200 ft | 533 kts | 33° |
| 2026-05-04 11:59 | 28.19365 | 123.88112 | 37206 ft | 533 kts | 33° |
| 2026-05-04 11:59 | 28.24990 | 123.93616 | 37227 ft | 536 kts | 32° |
| 2026-05-04 12:00 | 28.30626 | 123.99163 | 37197 ft | 539 kts | 35° |
| 2026-05-04 12:00 | 28.33156 | 124.02360 | 37196 ft | 552 kts | 48° |
| 2026-05-04 12:00 | 28.35435 | 124.05882 | 37208 ft | 552 kts | 49° |
| 2026-05-04 12:01 | 28.39952 | 124.12898 | 37203 ft | 551 kts | 48° |
| 2026-05-04 12:02 | 28.55954 | 124.37438 | 37200 ft | 552 kts | 48° |
| 2026-05-04 12:03 | 28.60517 | 124.44456 | 37216 ft | 553 kts | 47° |
| 2026-05-04 12:03 | 28.65082 | 124.51499 | 37187 ft | 552 kts | 48° |
| 2026-05-04 12:04 | 28.69625 | 124.58518 | 37198 ft | 551 kts | 48° |
| 2026-05-04 12:04 | 28.74175 | 124.65546 | 37214 ft | 550 kts | 47° |
| 2026-05-04 12:05 | 28.76658 | 124.68814 | 37208 ft | 540 kts | 34° |
| 2026-05-04 12:05 | 28.79632 | 124.71277 | 37189 ft | 520 kts | 17° |
| 2026-05-04 12:05 | 28.82877 | 124.72888 | 37141 ft | 502 kts | 7° |
| 2026-05-04 12:05 | 28.86175 | 124.74106 | 37110 ft | 497 kts | 5° |
| 2026-05-04 12:06 | 28.92782 | 124.76519 | 37176 ft | 500 kts | 6° |
| 2026-05-04 12:06 | 28.99383 | 124.79129 | 37197 ft | 502 kts | 7° |
| 2026-05-04 12:07 | 29.05979 | 124.81774 | 37199 ft | 502 kts | 7° |
| 2026-05-04 12:07 | 29.12571 | 124.84411 | 37199 ft | 502 kts | 7° |
| 2026-05-04 12:08 | 29.19162 | 124.87049 | 37219 ft | 502 kts | 7° |
| 2026-05-04 12:08 | 29.25768 | 124.89695 | 37204 ft | 503 kts | 7° |
| 2026-05-04 12:09 | 29.32379 | 124.92344 | 37201 ft | 503 kts | 7° |
| 2026-05-04 12:09 | 29.38980 | 124.94991 | 37253 ft | 503 kts | 7° |
| 2026-05-04 12:10 | 29.45581 | 124.97641 | 37208 ft | 503 kts | 7° |
| 2026-05-04 12:10 | 29.52187 | 125.00312 | 37185 ft | 503 kts | 7° |
| 2026-05-04 12:11 | 29.58805 | 125.02986 | 37241 ft | 503 kts | 7° |
| 2026-05-04 12:11 | 29.65414 | 125.05653 | 37210 ft | 503 kts | 7° |
| 2026-05-04 12:12 | 29.72021 | 125.08321 | 37199 ft | 503 kts | 7° |
| 2026-05-04 12:12 | 29.78617 | 125.10994 | 37200 ft | 503 kts | 7° |
| 2026-05-04 12:14 | 30.04962 | 125.21703 | 37219 ft | 501 kts | 7° |
| 2026-05-04 12:15 | 30.11529 | 125.24393 | 37202 ft | 501 kts | 7° |
| 2026-05-04 12:15 | 30.18094 | 125.27079 | 37197 ft | 502 kts | 7° |
| 2026-05-04 12:16 | 30.24684 | 125.29784 | 37224 ft | 501 kts | 8° |
| 2026-05-04 12:16 | 30.31248 | 125.32485 | 37211 ft | 500 kts | 8° |
| 2026-05-04 12:17 | 30.37769 | 125.35175 | 37202 ft | 501 kts | 7° |
| 2026-05-04 12:17 | 30.44330 | 125.37872 | 37228 ft | 500 kts | 8° |
| 2026-05-04 12:18 | 30.50920 | 125.40589 | 37204 ft | 499 kts | 8° |
| 2026-05-04 12:18 | 30.57462 | 125.43290 | 37200 ft | 499 kts | 8° |
| 2026-05-04 12:19 | 30.64009 | 125.45999 | 37237 ft | 499 kts | 8° |
| 2026-05-04 12:19 | 30.70544 | 125.48708 | 37204 ft | 498 kts | 8° |
| 2026-05-04 12:20 | 30.77074 | 125.51424 | 37187 ft | 498 kts | 8° |
| 2026-05-04 12:20 | 30.83599 | 125.54130 | 37228 ft | 499 kts | 8° |
| 2026-05-04 12:21 | 30.90128 | 125.56850 | 37202 ft | 498 kts | 8° |
| 2026-05-04 12:21 | 30.96608 | 125.59551 | 37198 ft | 498 kts | 8° |
| 2026-05-04 12:22 | 31.03129 | 125.62268 | 37199 ft | 497 kts | 8° |
| 2026-05-04 12:22 | 31.09691 | 125.65011 | 37198 ft | 498 kts | 8° |
| 2026-05-04 12:23 | 31.16157 | 125.67723 | 37200 ft | 497 kts | 8° |
| 2026-05-04 12:23 | 31.22675 | 125.70457 | 37201 ft | 498 kts | 8° |
| 2026-05-04 12:24 | 31.29192 | 125.73195 | 37212 ft | 498 kts | 8° |
| 2026-05-04 12:24 | 31.35735 | 125.75938 | 37177 ft | 497 kts | 8° |
| 2026-05-04 12:25 | 31.42225 | 125.78670 | 37196 ft | 498 kts | 8° |
| 2026-05-04 12:25 | 31.48742 | 125.81426 | 37213 ft | 498 kts | 9° |
| 2026-05-04 12:26 | 31.55259 | 125.84180 | 37198 ft | 498 kts | 9° |
| 2026-05-04 12:26 | 31.61781 | 125.86935 | 37198 ft | 498 kts | 8° |
| 2026-05-04 12:27 | 31.68300 | 125.89665 | 37211 ft | 498 kts | 9° |
| 2026-05-04 12:27 | 31.74836 | 125.92412 | 37203 ft | 498 kts | 9° |
| 2026-05-04 12:28 | 31.81357 | 125.95164 | 37195 ft | 498 kts | 9° |
| 2026-05-04 12:28 | 31.87881 | 125.97923 | 37204 ft | 498 kts | 9° |
| 2026-05-04 12:29 | 31.94402 | 126.00679 | 37191 ft | 498 kts | 9° |
| 2026-05-04 12:29 | 32.00922 | 126.03439 | 37191 ft | 498 kts | 9° |
| 2026-05-04 12:30 | 32.07435 | 126.06200 | 37201 ft | 498 kts | 9° |
| 2026-05-04 12:30 | 32.13957 | 126.08965 | 37186 ft | 498 kts | 9° |
| 2026-05-04 12:31 | 32.19415 | 126.11276 | 37188 ft | 498 kts | 9° |
| 2026-05-04 12:31 | 32.26980 | 126.14500 | 37196 ft | 497 kts | 9° |
| 2026-05-04 12:32 | 32.35620 | 126.18159 | 37184 ft | 497 kts | 9° |
| 2026-05-04 12:33 | 32.42211 | 126.20961 | 37216 ft | 497 kts | 9° |
| 2026-05-04 12:33 | 32.48716 | 126.23741 | 37187 ft | 497 kts | 10° |
| 2026-05-04 12:34 | 32.55215 | 126.26544 | 37166 ft | 498 kts | 9° |
| 2026-05-04 12:34 | 32.61727 | 126.29323 | 37216 ft | 498 kts | 10° |
| 2026-05-04 12:35 | 32.68227 | 126.32111 | 37182 ft | 497 kts | 10° |
| 2026-05-04 12:35 | 32.74747 | 126.34910 | 37181 ft | 497 kts | 10° |
| 2026-05-04 12:36 | 32.81259 | 126.37725 | 37206 ft | 497 kts | 10° |
| 2026-05-04 12:36 | 32.84432 | 126.39460 | 37177 ft | 511 kts | 24° |
| 2026-05-04 12:36 | 32.87295 | 126.42006 | 37178 ft | 518 kts | 33° |
| 2026-05-04 12:37 | 32.92703 | 126.47588 | 37145 ft | 517 kts | 34° |
| 2026-05-04 12:37 | 32.95408 | 126.50355 | 36951 ft | 520 kts | 34° |
| 2026-05-04 12:37 | 32.98204 | 126.53177 | 36731 ft | 521 kts | 33° |
| 2026-05-04 12:37 | 33.01002 | 126.55945 | 36493 ft | 522 kts | 33° |
| 2026-05-04 12:38 | 33.03801 | 126.58701 | 36249 ft | 522 kts | 33° |
| 2026-05-04 12:38 | 33.06588 | 126.61451 | 36002 ft | 522 kts | 33° |
| 2026-05-04 12:38 | 33.09390 | 126.64225 | 35755 ft | 523 kts | 33° |
| 2026-05-04 12:38 | 33.12184 | 126.67002 | 35555 ft | 524 kts | 33° |
| 2026-05-04 12:39 | 33.14982 | 126.69794 | 35324 ft | 521 kts | 34° |
| 2026-05-04 12:39 | 33.17758 | 126.72568 | 35089 ft | 520 kts | 34° |
| 2026-05-04 12:39 | 33.20524 | 126.75342 | 34812 ft | 520 kts | 34° |
| 2026-05-04 12:39 | 33.23308 | 126.78124 | 34575 ft | 524 kts | 33° |
| 2026-05-04 12:40 | 33.26126 | 126.80913 | 34352 ft | 526 kts | 33° |
| 2026-05-04 12:40 | 33.28926 | 126.83687 | 34158 ft | 526 kts | 34° |
| 2026-05-04 12:40 | 33.31737 | 126.86491 | 33897 ft | 522 kts | 34° |
| 2026-05-04 12:40 | 33.34517 | 126.89276 | 33628 ft | 521 kts | 34° |
| 2026-05-04 12:41 | 33.37292 | 126.92063 | 33367 ft | 520 kts | 34° |
| 2026-05-04 12:41 | 33.40052 | 126.94837 | 33099 ft | 520 kts | 34° |
| 2026-05-04 12:41 | 33.42828 | 126.97616 | 32848 ft | 519 kts | 34° |
| 2026-05-04 12:41 | 33.45583 | 127.00379 | 32613 ft | 519 kts | 34° |
| 2026-05-04 12:42 | 33.48364 | 127.03169 | 32357 ft | 520 kts | 34° |
| 2026-05-04 12:42 | 33.51140 | 127.05959 | 32103 ft | 520 kts | 34° |
| 2026-05-04 12:42 | 33.53906 | 127.08743 | 31857 ft | 520 kts | 34° |
| 2026-05-04 12:42 | 33.56670 | 127.11532 | 31611 ft | 520 kts | 34° |
| 2026-05-04 12:43 | 33.59441 | 127.14326 | 31368 ft | 520 kts | 34° |
| 2026-05-04 12:43 | 33.62206 | 127.17109 | 31150 ft | 516 kts | 34° |
| 2026-05-04 12:43 | 33.64946 | 127.19876 | 30901 ft | 511 kts | 34° |
| 2026-05-04 12:43 | 33.67654 | 127.22615 | 30659 ft | 508 kts | 34° |
| 2026-05-04 12:44 | 33.70343 | 127.25328 | 30392 ft | 507 kts | 34° |
| 2026-05-04 12:44 | 33.73027 | 127.28047 | 30139 ft | 502 kts | 34° |
| 2026-05-04 12:44 | 33.75685 | 127.30745 | 29876 ft | 494 kts | 34° |
| 2026-05-04 12:44 | 33.78220 | 127.33436 | 29572 ft | 485 kts | 40° |
| 2026-05-04 12:45 | 33.80497 | 127.36401 | 29279 ft | 478 kts | 44° |
| 2026-05-04 12:45 | 33.82684 | 127.39376 | 28923 ft | 472 kts | 45° |
| 2026-05-04 12:45 | 33.84839 | 127.42337 | 28564 ft | 468 kts | 44° |
| 2026-05-04 12:45 | 33.86989 | 127.45278 | 28258 ft | 467 kts | 44° |
| 2026-05-04 12:46 | 33.89127 | 127.48178 | 27967 ft | 462 kts | 44° |
| 2026-05-04 12:46 | 33.91265 | 127.51071 | 27741 ft | 460 kts | 44° |
| 2026-05-04 12:46 | 33.93396 | 127.53927 | 27471 ft | 455 kts | 44° |
| 2026-05-04 12:46 | 33.95499 | 127.56733 | 27206 ft | 451 kts | 44° |
| 2026-05-04 12:47 | 33.97576 | 127.59527 | 26944 ft | 446 kts | 44° |
| 2026-05-04 12:47 | 33.99637 | 127.62316 | 26688 ft | 443 kts | 44° |
| 2026-05-04 12:47 | 34.01689 | 127.65104 | 26447 ft | 439 kts | 44° |
| 2026-05-04 12:47 | 34.03689 | 127.67821 | 26215 ft | 436 kts | 44° |
| 2026-05-04 12:48 | 34.05679 | 127.70530 | 25961 ft | 428 kts | 44° |
| 2026-05-04 12:48 | 34.07655 | 127.73222 | 25697 ft | 427 kts | 44° |
| 2026-05-04 12:48 | 34.09622 | 127.75900 | 25444 ft | 427 kts | 44° |
| 2026-05-04 12:48 | 34.11579 | 127.78571 | 25203 ft | 423 kts | 44° |
| 2026-05-04 12:49 | 34.13514 | 127.81211 | 24952 ft | 420 kts | 44° |
| 2026-05-04 12:49 | 34.15412 | 127.83904 | 24701 ft | 420 kts | 51° |
| 2026-05-04 12:49 | 34.16790 | 127.86998 | 24402 ft | 421 kts | 66° |
| 2026-05-04 12:49 | 34.17758 | 127.90328 | 23981 ft | 417 kts | 71° |
| 2026-05-04 12:50 | 34.18604 | 127.93645 | 23411 ft | 414 kts | 71° |
| 2026-05-04 12:50 | 34.19424 | 127.96973 | 22780 ft | 411 kts | 72° |
| 2026-05-04 12:50 | 34.20228 | 128.00282 | 22125 ft | 409 kts | 72° |
| 2026-05-04 12:50 | 34.21022 | 128.03573 | 21484 ft | 407 kts | 72° |
| 2026-05-04 12:51 | 34.21805 | 128.06844 | 20853 ft | 406 kts | 72° |
| 2026-05-04 12:51 | 34.22583 | 128.10115 | 20228 ft | 404 kts | 72° |
| 2026-05-04 12:51 | 34.23354 | 128.13379 | 19604 ft | 402 kts | 72° |
| 2026-05-04 12:51 | 34.24114 | 128.16621 | 18988 ft | 400 kts | 72° |
| 2026-05-04 12:52 | 34.24865 | 128.19846 | 18361 ft | 398 kts | 72° |
| 2026-05-04 12:52 | 34.25607 | 128.23069 | 17685 ft | 397 kts | 72° |
| 2026-05-04 12:52 | 34.26340 | 128.26257 | 16993 ft | 394 kts | 72° |
| 2026-05-04 12:52 | 34.27081 | 128.29457 | 16391 ft | 392 kts | 71° |
| 2026-05-04 12:53 | 34.28170 | 128.32425 | 16112 ft | 385 kts | 53° |
| 2026-05-04 12:53 | 34.29949 | 128.34787 | 16073 ft | 377 kts | 34° |
| 2026-05-04 12:53 | 34.32164 | 128.36458 | 16101 ft | 373 kts | 24° |
| 2026-05-04 12:53 | 34.34481 | 128.37877 | 16119 ft | 372 kts | 22° |
| 2026-05-04 12:54 | 34.36789 | 128.39209 | 16120 ft | 359 kts | 21° |
| 2026-05-04 12:54 | 34.38992 | 128.40472 | 16070 ft | 341 kts | 21° |
| 2026-05-04 12:54 | 34.41094 | 128.41663 | 15881 ft | 327 kts | 21° |
| 2026-05-04 12:54 | 34.43161 | 128.42827 | 15587 ft | 326 kts | 21° |
| 2026-05-04 12:55 | 34.45214 | 128.43976 | 15241 ft | 326 kts | 21° |
| 2026-05-04 12:55 | 34.47271 | 128.45125 | 14865 ft | 326 kts | 21° |
| 2026-05-04 12:55 | 34.49333 | 128.46284 | 14459 ft | 327 kts | 21° |
| 2026-05-04 12:55 | 34.51386 | 128.47442 | 14017 ft | 323 kts | 21° |
| 2026-05-04 12:56 | 34.53413 | 128.48586 | 13544 ft | 318 kts | 21° |
| 2026-05-04 12:56 | 34.55398 | 128.49711 | 13110 ft | 313 kts | 21° |
| 2026-05-04 12:56 | 34.57362 | 128.50831 | 12730 ft | 312 kts | 22° |
| 2026-05-04 12:56 | 34.59332 | 128.51947 | 12333 ft | 313 kts | 22° |
| 2026-05-04 12:57 | 34.61311 | 128.53054 | 11919 ft | 314 kts | 21° |
| 2026-05-04 12:57 | 34.63303 | 128.54163 | 11500 ft | 315 kts | 21° |
| 2026-05-04 12:57 | 34.65300 | 128.55279 | 11089 ft | 316 kts | 21° |
| 2026-05-04 12:57 | 34.67289 | 128.56404 | 10705 ft | 316 kts | 21° |
| 2026-05-04 12:58 | 34.69252 | 128.57518 | 10404 ft | 306 kts | 21° |
| 2026-05-04 12:58 | 34.71134 | 128.58597 | 10182 ft | 293 kts | 21° |
| 2026-05-04 12:58 | 34.72962 | 128.59635 | 9875 ft | 288 kts | 21° |
| 2026-05-04 12:58 | 34.74781 | 128.60662 | 9467 ft | 288 kts | 21° |
| 2026-05-04 12:59 | 34.76586 | 128.61684 | 9088 ft | 284 kts | 21° |
| 2026-05-04 12:59 | 34.78363 | 128.62693 | 8699 ft | 281 kts | 21° |
| 2026-05-04 12:59 | 34.80130 | 128.63689 | 8321 ft | 279 kts | 21° |
| 2026-05-04 12:59 | 34.81887 | 128.64684 | 7962 ft | 279 kts | 22° |
| 2026-05-04 13:00 | 34.83654 | 128.65680 | 7604 ft | 280 kts | 22° |
| 2026-05-04 13:00 | 34.85416 | 128.66673 | 7241 ft | 278 kts | 23° |
| 2026-05-04 13:00 | 34.87163 | 128.67662 | 6858 ft | 275 kts | 23° |
| 2026-05-04 13:00 | 34.88891 | 128.68645 | 6487 ft | 272 kts | 23° |
| 2026-05-04 13:01 | 34.90596 | 128.69614 | 6100 ft | 271 kts | 23° |
| 2026-05-04 13:01 | 34.92284 | 128.70576 | 5833 ft | 264 kts | 23° |
| 2026-05-04 13:01 | 34.93912 | 128.71504 | 5617 ft | 252 kts | 24° |
| 2026-05-04 13:01 | 34.95461 | 128.72389 | 5418 ft | 240 kts | 24° |
| 2026-05-04 13:02 | 34.96955 | 128.73237 | 5053 ft | 235 kts | 24° |
| 2026-05-04 13:02 | 34.98407 | 128.74066 | 4848 ft | 225 kts | 24° |
| 2026-05-04 13:02 | 34.99780 | 128.74864 | 4631 ft | 213 kts | 27° |
| 2026-05-04 13:02 | 35.00988 | 128.75825 | 4361 ft | 202 kts | 36° |
| 2026-05-04 13:03 | 35.02080 | 128.76848 | 4020 ft | 195 kts | 36° |
| 2026-05-04 13:03 | 35.03150 | 128.77849 | 3617 ft | 192 kts | 36° |
| 2026-05-04 13:03 | 35.04177 | 128.78802 | 3438 ft | 177 kts | 35° |
| 2026-05-04 13:03 | 35.05118 | 128.79672 | 3325 ft | 162 kts | 34° |
| 2026-05-04 13:04 | 35.05974 | 128.80458 | 3139 ft | 146 kts | 33° |
| 2026-05-04 13:04 | 35.06771 | 128.81194 | 2808 ft | 142 kts | 32° |
| 2026-05-04 13:04 | 35.07572 | 128.81926 | 2949 ft | 146 kts | 32° |
| 2026-05-04 13:04 | 35.08380 | 128.82669 | 3131 ft | 146 kts | 32° |
| 2026-05-04 13:05 | 35.09194 | 128.83415 | 3282 ft | 146 kts | 33° |
| 2026-05-04 13:05 | 35.09998 | 128.84160 | 3337 ft | 145 kts | 33° |
| 2026-05-04 13:05 | 35.10805 | 128.84904 | 3188 ft | 145 kts | 33° |
| 2026-05-04 13:05 | 35.11607 | 128.85655 | 2888 ft | 146 kts | 34° |
| 2026-05-04 13:06 | 35.12401 | 128.86412 | 2560 ft | 145 kts | 33° |
| 2026-05-04 13:06 | 35.13197 | 128.87174 | 2269 ft | 146 kts | 33° |
| 2026-05-04 13:06 | 35.13963 | 128.87907 | 2002 ft | 132 kts | 32° |
| 2026-05-04 13:06 | 35.14692 | 128.88560 | 1718 ft | 128 kts | 21° |
| 2026-05-04 13:07 | 35.15539 | 128.88837 | 1490 ft | 127 kts | 11° |
| 2026-05-04 13:07 | 35.16385 | 128.89168 | 1431 ft | 128 kts | 14° |
| 2026-05-04 13:07 | 35.17245 | 128.89408 | 1481 ft | 127 kts | 4° |
| 2026-05-04 13:07 | 35.18118 | 128.89503 | 1595 ft | 126 kts | 360° |
| 2026-05-04 13:08 | 35.18997 | 128.89537 | 1596 ft | 125 kts | 356° |
| 2026-05-04 13:08 | 35.19868 | 128.89514 | 1461 ft | 125 kts | 356° |
| 2026-05-04 13:08 | 35.20734 | 128.89675 | 1238 ft | 128 kts | 12° |
| 2026-05-04 13:08 | 35.21548 | 128.90133 | 957 ft | 132 kts | 34° |
| 2026-05-04 13:09 | 35.22085 | 128.91026 | 777 ft | 132 kts | 71° |
| 2026-05-04 13:09 | 35.21975 | 128.92115 | 632 ft | 133 kts | 118° |
| 2026-05-04 13:09 | 35.21322 | 128.92909 | 544 ft | 134 kts | 147° |
| 2026-05-04 13:09 | 35.20461 | 128.93336 | 388 ft | 134 kts | 164° |
| 2026-05-04 13:10 | 35.19538 | 128.93497 | 201 ft | 134 kts | 172° |
| 2026-05-04 13:10 | 35.18612 | 128.93607 | 67 ft | 133 kts | 172° |
| 2026-05-04 13:10 | 35.18015 | 128.93685 | 41 ft | 127 kts | 172° |
| 2026-05-04 13:10 | 35.17238 | 128.93788 | 30 ft | 81 kts | 175° |
| 2026-05-04 13:11 | 35.16971 | 128.93821 | 27 ft | 2 kts | 173° |
| 2026-05-04 13:11 | 35.16853 | 128.93837 | 27 ft | 32 kts | 174° |
| 2026-05-04 13:11 | 35.16647 | 128.93862 | 28 ft | 28 kts | 174° |
| 2026-05-04 13:11 | 35.16540 | 128.93915 | 28 ft | 17 kts | 115° |
| 2026-05-04 13:12 | 35.16539 | 128.94017 | 29 ft | 11 kts | 79° |
| 2026-05-04 13:12 | 35.16554 | 128.94118 | 29 ft | 13 kts | 78° |
| 2026-05-04 13:12 | 35.16605 | 128.94222 | 29 ft | 16 kts | 41° |
| 2026-05-04 13:12 | 35.16694 | 128.94302 | 29 ft | 13 kts | 27° |
| 2026-05-04 13:13 | 35.16790 | 128.94332 | 29 ft | 16 kts | 360° |
| 2026-05-04 13:13 | 35.16886 | 128.94347 | 29 ft | 11 kts | 50° |
| 2026-05-04 13:13 | 35.16910 | 128.94445 | 29 ft | 9 kts | 88° |
| 2026-05-04 13:13 | 35.16911 | 128.94459 | 29 ft | 3 kts | 79° |
| 2026-05-04 13:14 | 35.16924 | 128.94492 | 29 ft | 6 kts | 50° |
| 2026-05-04 13:14 | 35.16970 | 128.94509 | 29 ft | 9 kts | 358° |
| 2026-05-04 13:14 | 35.17039 | 128.94498 | 29 ft | 11 kts | 355° |
| 2026-05-04 13:14 | 35.17104 | 128.94493 | 29 ft | 8 kts | 356° |
| 2026-05-04 13:15 | 35.17168 | 128.94486 | 29 ft | 11 kts | 354° |
| 2026-05-04 13:15 | 35.17243 | 128.94475 | 29 ft | 11 kts | 353° |
| 2026-05-04 13:15 | 35.17259 | 128.94483 | 29 ft | 3 kts | 68° |
| 2026-05-04 13:15 | 35.17255 | 128.94510 | 29 ft | 0 kts | 94° |
| 2026-05-04 13:16 | 35.17253 | 128.94522 | 29 ft | 3 kts | 105° |
| 2026-05-04 13:16 | 35.17242 | 128.94555 | 29 ft | 6 kts | 115° |
| 2026-05-04 13:16 | 35.17238 | 128.94567 | 29 ft | 0 kts | 115° |